createdAt,value
2022-12-31T00:00:11.958Z,100146.78
2022-12-31T00:01:44.754Z,100144.25
2022-12-31T00:03:16.499Z,100156.69
2022-12-31T00:04:48.269Z,100148.09
2022-12-31T00:06:23.576Z,100148.00
2022-12-31T00:07:55.279Z,100154.22
2022-12-31T00:09:26.926Z,100150.72
2022-12-31T00:10:59.928Z,100151.69
2022-12-31T00:12:31.983Z,100143.91
2022-12-31T00:14:04.430Z,100141.38
2022-12-31T00:15:36.407Z,100138.84
2022-12-31T00:17:10.752Z,100142.44
2022-12-31T00:18:44.103Z,100133.66
2022-12-31T00:20:16.402Z,100142.44
2022-12-31T00:21:48.030Z,100129.97
2022-12-31T00:23:19.676Z,100133.56
2022-12-31T00:24:51.949Z,100133.44
2022-12-31T00:26:27.948Z,100133.44
2022-12-31T00:27:59.547Z,100137.78
2022-12-31T00:29:31.191Z,100136.94
2022-12-31T00:31:07.886Z,100133.34
2022-12-31T00:32:39.599Z,100140.44
2022-12-31T00:34:11.330Z,100127.31
2022-12-31T00:35:42.983Z,100136.84
2022-12-31T00:37:14.594Z,100126.28
2022-12-31T00:38:48.240Z,100131.38
2022-12-31T00:40:19.982Z,100128.66
2022-12-31T00:41:52.995Z,100129.31
2022-12-31T00:43:24.613Z,100121.38
2022-12-31T00:44:56.221Z,100123.84
2022-12-31T00:46:28.412Z,100108.72
2022-12-31T00:48:00.126Z,100112.88
2022-12-31T00:49:31.817Z,100095.13
2022-12-31T00:51:05.129Z,100105.53
2022-12-31T00:52:36.920Z,100101.94
2022-12-31T00:54:09.233Z,100103.47
2022-12-31T00:55:40.855Z,100096.25
2022-12-31T00:57:14.089Z,100096.16
2022-12-31T00:58:46.046Z,100095.97
2022-12-31T01:00:17.977Z,100086.06
2022-12-31T01:01:50.151Z,100093.06
2022-12-31T01:03:22.649Z,100093.81
2022-12-31T01:04:54.392Z,100088.44
2022-12-31T01:06:26.340Z,100091.88
2022-12-31T01:07:58.330Z,100093.59
2022-12-31T01:09:31.115Z,100084.63
2022-12-31T01:11:21.744Z,100086.22
2022-12-31T01:12:54.715Z,100080.66
2022-12-31T01:14:27.020Z,100089.97
2022-12-31T01:15:58.736Z,100083.66
2022-12-31T01:17:30.829Z,100093.19
2022-12-31T01:19:05.817Z,100086.00
2022-12-31T01:20:38.707Z,100084.13
2022-12-31T01:22:10.332Z,100081.41
2022-12-31T01:23:42.314Z,100076.97
2022-12-31T01:25:14.080Z,100081.19
2022-12-31T01:26:46.007Z,100089.03
2022-12-31T01:28:19.011Z,100088.00
2022-12-31T01:29:50.631Z,100091.41
2022-12-31T01:31:24.220Z,100086.75
2022-12-31T01:32:55.951Z,100078.81
2022-12-31T01:34:27.633Z,100082.22
2022-12-31T01:36:02.898Z,100087.28
2022-12-31T01:37:34.569Z,100079.91
2022-12-31T01:39:08.352Z,100082.28
2022-12-31T01:40:40.862Z,100082.09
2022-12-31T01:42:12.556Z,100091.50
2022-12-31T01:43:48.748Z,100095.75
2022-12-31T01:45:20.637Z,100086.66
2022-12-31T01:46:54.847Z,100091.69
2022-12-31T01:48:28.393Z,100086.81
2022-12-31T01:50:07.035Z,100086.50
2022-12-31T01:51:40.919Z,100090.75
2022-12-31T01:53:13.143Z,100090.44
2022-12-31T01:54:47.741Z,100094.59
2022-12-31T01:56:22.387Z,100095.34
2022-12-31T01:57:58.845Z,100090.59
2022-12-31T01:59:33.330Z,100099.25
2022-12-31T02:01:07.737Z,100099.91
2022-12-31T02:02:39.566Z,100104.91
2022-12-31T02:04:13.548Z,100101.22
2022-12-31T02:05:51.486Z,100114.47
2022-12-31T02:07:23.268Z,100098.66
2022-12-31T02:08:56.377Z,100110.13
2022-12-31T02:10:28.482Z,100093.28
2022-12-31T02:12:00.369Z,100097.81
2022-12-31T02:13:31.999Z,100097.81
2022-12-31T02:15:06.467Z,100088.91
2022-12-31T02:16:45.291Z,100083.63
2022-12-31T02:18:30.373Z,100079.28
2022-12-31T02:20:31.225Z,100079.28
2022-12-31T02:22:09.217Z,100096.22
2022-12-31T02:24:15.401Z,100084.47
2022-12-31T02:26:12.749Z,100098.56
2022-12-31T02:27:53.525Z,100083.63
2022-12-31T02:30:08.508Z,100080.78
2022-12-31T02:31:45.281Z,100089.44
2022-12-31T02:33:22.167Z,100093.16
2022-12-31T02:34:58.910Z,100096.66
2022-12-31T02:36:36.152Z,100096.66
2022-12-31T02:38:13.460Z,100090.19
2022-12-31T02:39:45.653Z,100106.84
2022-12-31T02:41:37.903Z,100112.25
2022-12-31T02:43:09.522Z,100100.69
2022-12-31T02:44:42.330Z,100095.28
2022-12-31T02:46:22.511Z,100101.25
2022-12-31T02:48:07.533Z,100114.28
2022-12-31T02:49:51.799Z,100103.59
2022-12-31T02:51:37.320Z,100108.75
2022-12-31T02:53:20.431Z,100102.53
2022-12-31T02:55:02.884Z,100104.44
2022-12-31T02:56:41.192Z,100101.69
2022-12-31T02:58:16.652Z,100106.09
2022-12-31T03:00:13.429Z,100108.88
2022-12-31T03:02:11.686Z,100107.84
2022-12-31T03:03:43.523Z,100123.66
2022-12-31T03:05:19.346Z,100117.50
2022-12-31T03:06:52.778Z,100113.78
2022-12-31T03:08:26.158Z,100125.16
2022-12-31T03:09:58.323Z,100117.19
2022-12-31T03:11:48.451Z,100109.34
2022-12-31T03:13:20.136Z,100123.25
2022-12-31T03:14:53.731Z,100117.09
2022-12-31T03:16:25.421Z,100103.84
2022-12-31T03:18:01.341Z,100113.59
2022-12-31T03:19:51.782Z,100114.44
2022-12-31T03:21:42.168Z,100114.44
2022-12-31T03:23:21.207Z,100105.63
2022-12-31T03:25:16.633Z,100120.59
2022-12-31T03:26:49.742Z,100094.28
2022-12-31T03:28:23.646Z,100101.28
2022-12-31T03:29:55.279Z,100116.34
2022-12-31T03:31:26.992Z,100104.88
2022-12-31T03:33:00.595Z,100114.75
2022-12-31T03:34:32.197Z,100124.59
2022-12-31T03:36:05.187Z,100137.75
2022-12-31T03:37:36.836Z,100133.09
2022-12-31T03:39:08.509Z,100122.69
2022-12-31T03:40:42.351Z,100137.75
2022-12-31T03:42:13.987Z,100143.16
2022-12-31T03:43:45.673Z,100130.09
2022-12-31T03:45:17.670Z,100128.50
2022-12-31T03:46:49.272Z,100134.84
2022-12-31T03:48:23.409Z,100142.81
2022-12-31T03:49:55.136Z,100139.41
2022-12-31T03:51:26.777Z,100141.09
2022-12-31T03:52:58.913Z,100140.25
2022-12-31T03:54:30.599Z,100141.19
2022-12-31T03:56:02.238Z,100140.25
2022-12-31T03:57:36.792Z,100129.75
2022-12-31T03:59:08.553Z,100112.88
2022-12-31T04:00:40.238Z,100130.59
2022-12-31T04:02:12.032Z,100136.84
2022-12-31T04:03:45.067Z,100137.69
2022-12-31T04:05:18.171Z,100136.84
2022-12-31T04:06:49.902Z,100143.19
2022-12-31T04:08:21.678Z,100141.50
2022-12-31T04:09:53.300Z,100125.59
2022-12-31T04:11:24.912Z,100139.69
2022-12-31T04:12:56.573Z,100130.78
2022-12-31T04:14:30.896Z,100126.44
2022-12-31T04:16:02.606Z,100121.16
2022-12-31T04:17:34.640Z,100117.53
2022-12-31T04:19:11.203Z,100129.00
2022-12-31T04:20:42.835Z,100130.78
2022-12-31T04:22:14.474Z,100131.75
2022-12-31T04:23:46.127Z,100125.41
2022-12-31T04:25:17.749Z,100119.16
2022-12-31T04:26:49.384Z,100106.53
2022-12-31T04:28:21.061Z,100132.19
2022-12-31T04:29:52.763Z,100130.31
2022-12-31T04:31:24.559Z,100131.06
2022-12-31T04:32:56.196Z,100135.28
2022-12-31T04:34:29.363Z,100125.44
2022-12-31T04:36:01.217Z,100143.91
2022-12-31T04:37:32.864Z,100144.75
2022-12-31T04:39:04.475Z,100145.81
2022-12-31T04:40:56.079Z,100159.81
2022-12-31T04:42:28.487Z,100149.97
2022-12-31T04:44:00.746Z,100146.34
2022-12-31T04:45:32.416Z,100146.25
2022-12-31T04:47:04.265Z,100145.31
2022-12-31T04:48:36.063Z,100153.25
2022-12-31T04:50:09.559Z,100145.31
2022-12-31T04:51:41.292Z,100137.34
2022-12-31T04:53:13.078Z,100149.47
2022-12-31T04:54:44.736Z,100146.81
2022-12-31T04:56:16.880Z,100146.69
2022-12-31T04:57:49.332Z,100155.47
2022-12-31T04:59:21.023Z,100156.22
2022-12-31T05:00:54.488Z,100157.06
2022-12-31T05:02:26.383Z,100147.41
2022-12-31T05:03:58.738Z,100112.94
2022-12-31T05:05:31.759Z,100158.97
2022-12-31T05:07:03.503Z,100128.25
2022-12-31T05:08:35.195Z,100138.00
2022-12-31T05:10:07.654Z,100154.75
2022-12-31T05:11:39.327Z,100150.31
2022-12-31T05:13:11.654Z,100156.56
2022-12-31T05:14:43.270Z,100146.16
2022-12-31T05:16:14.956Z,100153.91
2022-12-31T05:17:46.762Z,100132.69
2022-12-31T05:19:20.783Z,100137.16
2022-12-31T05:20:53.813Z,100145.31
2022-12-31T05:22:31.664Z,100141.81
2022-12-31T05:24:03.429Z,100140.31
2022-12-31T05:25:35.632Z,100123.44
2022-12-31T05:27:07.266Z,100138.31
2022-12-31T05:28:39.123Z,100116.03
2022-12-31T05:30:11.791Z,100144.06
2022-12-31T05:31:43.411Z,100168.75
2022-12-31T05:33:15.302Z,100171.38
2022-12-31T05:34:46.952Z,100161.75
2022-12-31T05:36:20.005Z,100173.22
2022-12-31T05:37:51.618Z,100165.38
2022-12-31T05:39:23.317Z,100155.47
2022-12-31T05:41:00.544Z,100166.84
2022-12-31T05:42:32.403Z,100181.78
2022-12-31T05:44:04.430Z,100171.94
2022-12-31T05:45:36.217Z,100160.47
2022-12-31T05:47:07.869Z,100153.38
2022-12-31T05:48:39.603Z,100161.03
2022-12-31T05:50:13.104Z,100158.16
2022-12-31T05:51:46.236Z,100166.13
2022-12-31T05:53:18.487Z,100168.78
2022-12-31T05:54:51.049Z,100166.97
2022-12-31T05:56:24.476Z,100164.44
2022-12-31T05:57:56.281Z,100160.94
2022-12-31T05:59:27.919Z,100181.50
2022-12-31T06:01:02.069Z,100169.19
2022-12-31T06:02:33.937Z,100185.66
2022-12-31T06:04:06.006Z,100177.69
2022-12-31T06:05:40.147Z,100157.41
2022-12-31T06:07:13.286Z,100170.69
2022-12-31T06:08:48.778Z,100188.31
2022-12-31T06:10:20.460Z,100198.91
2022-12-31T06:11:52.085Z,100183.84
2022-12-31T06:13:23.781Z,100209.53
2022-12-31T06:14:55.425Z,100190.84
2022-12-31T06:16:27.236Z,100185.75
2022-12-31T06:17:58.967Z,100192.00
2022-12-31T06:19:30.796Z,100189.56
2022-12-31T06:21:02.930Z,100201.97
2022-12-31T06:22:35.897Z,100201.00
2022-12-31T06:24:07.952Z,100205.38
2022-12-31T06:25:39.609Z,100227.34
2022-12-31T06:27:11.468Z,100213.22
2022-12-31T06:28:43.099Z,100222.88
2022-12-31T06:30:14.837Z,100219.19
2022-12-31T06:31:46.497Z,100224.47
2022-12-31T06:33:18.391Z,100220.03
2022-12-31T06:34:50.084Z,100231.38
2022-12-31T06:36:22.324Z,100235.72
2022-12-31T06:37:55.294Z,100211.84
2022-12-31T06:39:27.139Z,100225.00
2022-12-31T06:41:02.446Z,100235.63
2022-12-31T06:42:34.130Z,100215.16
2022-12-31T06:44:06.287Z,100231.50
2022-12-31T06:45:39.477Z,100251.44
2022-12-31T06:47:11.168Z,100264.97
2022-12-31T06:48:44.876Z,100258.56
2022-12-31T06:50:16.840Z,100238.31
2022-12-31T06:51:48.691Z,100254.03
2022-12-31T06:53:22.259Z,100265.59
2022-12-31T06:54:54.629Z,100273.44
2022-12-31T06:56:33.883Z,100250.50
2022-12-31T06:58:06.322Z,100257.53
2022-12-31T06:59:38.697Z,100262.72
2022-12-31T07:01:29.768Z,100261.88
2022-12-31T07:03:18.698Z,100259.13
2022-12-31T07:05:12.784Z,100273.34
2022-12-31T07:06:51.637Z,100268.13
2022-12-31T07:08:39.644Z,100268.25
2022-12-31T07:10:29.033Z,100278.00
2022-12-31T07:12:06.513Z,100283.22
2022-12-31T07:13:50.743Z,100284.06
2022-12-31T07:15:36.871Z,100281.31
2022-12-31T07:17:29.253Z,100275.34
2022-12-31T07:19:12.147Z,100278.13
2022-12-31T07:20:44.281Z,100294.06
2022-12-31T07:22:17.225Z,100286.09
2022-12-31T07:23:51.018Z,100287.06
2022-12-31T07:25:23.546Z,100282.47
2022-12-31T07:27:11.955Z,100290.22
2022-12-31T07:28:57.713Z,100290.03
2022-12-31T07:30:39.053Z,100286.31
2022-12-31T07:32:27.167Z,100282.59
2022-12-31T07:34:01.084Z,100287.72
2022-12-31T07:35:41.913Z,100290.97
2022-12-31T07:37:20.684Z,100291.72
2022-12-31T07:39:01.501Z,100289.81
2022-12-31T07:40:45.386Z,100287.06
2022-12-31T07:42:23.963Z,100288.78
2022-12-31T07:44:02.387Z,100297.38
2022-12-31T07:45:41.102Z,100302.59
2022-12-31T07:47:21.538Z,100298.84
2022-12-31T07:48:54.349Z,100282.91
2022-12-31T07:50:26.633Z,100286.44
2022-12-31T07:51:58.969Z,100281.13
2022-12-31T07:53:31.213Z,100299.59
2022-12-31T07:55:05.633Z,100301.19
2022-12-31T07:56:37.417Z,100294.94
2022-12-31T07:58:18.463Z,100306.41
2022-12-31T08:00:03.871Z,100305.34
2022-12-31T08:01:50.224Z,100312.38
2022-12-31T08:03:40.349Z,100322.06
2022-12-31T08:05:19.507Z,100318.47
2022-12-31T08:07:01.257Z,100323.63
2022-12-31T08:08:36.987Z,100318.47
2022-12-31T08:10:18.576Z,100336.91
2022-12-31T08:11:56.170Z,100327.16
2022-12-31T08:13:28.082Z,100327.03
2022-12-31T08:15:00.375Z,100327.91
2022-12-31T08:16:32.638Z,100337.66
2022-12-31T08:18:05.102Z,100335.88
2022-12-31T08:19:37.337Z,100335.00
2022-12-31T08:21:19.136Z,100312.91
2022-12-31T08:23:15.022Z,100341.91
2022-12-31T08:24:58.607Z,100341.72
2022-12-31T08:26:37.566Z,100338.22
2022-12-31T08:28:20.276Z,100326.63
2022-12-31T08:30:01.295Z,100328.34
2022-12-31T08:31:40.866Z,100334.69
2022-12-31T08:33:18.333Z,100335.66
2022-12-31T08:34:59.317Z,100331.31
2022-12-31T08:36:39.959Z,100355.41
2022-12-31T08:38:23.277Z,100343.81
2022-12-31T08:40:10.349Z,100352.66
2022-12-31T08:41:45.821Z,100355.94
2022-12-31T08:43:31.932Z,100361.16
2022-12-31T08:45:11.351Z,100360.84
2022-12-31T08:46:50.451Z,100366.28
2022-12-31T08:48:30.814Z,100371.47
2022-12-31T08:50:03.175Z,100373.91
2022-12-31T08:51:35.565Z,100369.34
2022-12-31T08:53:07.971Z,100376.34
2022-12-31T08:54:40.136Z,100386.69
2022-12-31T08:56:22.699Z,100378.72
2022-12-31T08:58:08.355Z,100384.88
2022-12-31T08:59:52.709Z,100386.47
2022-12-31T09:01:28.149Z,100373.09
2022-12-31T09:03:25.936Z,100365.97
2022-12-31T09:05:07.037Z,100380.91
2022-12-31T09:06:47.093Z,100378.25
2022-12-31T09:08:28.179Z,100364.66
2022-12-31T09:10:09.331Z,100381.56
2022-12-31T09:11:53.802Z,100393.91
2022-12-31T09:13:36.715Z,100394.75
2022-12-31T09:15:15.923Z,100393.91
2022-12-31T09:16:58.856Z,100417.91
2022-12-31T09:18:34.428Z,100417.16
2022-12-31T09:20:14.418Z,100429.28
2022-12-31T09:21:46.637Z,100424.09
2022-12-31T09:23:18.940Z,100419.63
2022-12-31T09:24:51.128Z,100431.00
2022-12-31T09:26:39.205Z,100427.38
2022-12-31T09:28:16.073Z,100444.28
2022-12-31T09:30:00.923Z,100456.50
2022-12-31T09:31:40.845Z,100450.34
2022-12-31T09:33:21.293Z,100467.16
2022-12-31T09:34:57.741Z,100461.09
2022-12-31T09:36:36.341Z,100472.47
2022-12-31T09:38:16.713Z,100475.03
2022-12-31T09:39:48.950Z,100476.53
2022-12-31T09:41:45.042Z,100471.31
2022-12-31T09:44:03.558Z,100479.19
2022-12-31T09:45:59.848Z,100476.53
2022-12-31T09:48:04.713Z,100475.44
2022-12-31T09:50:16.093Z,100460.25
2022-12-31T09:51:59.195Z,100462.78
2022-12-31T09:53:41.037Z,100485.84
2022-12-31T09:55:29.707Z,100476.84
2022-12-31T09:57:19.418Z,100479.38
2022-12-31T09:59:02.266Z,100494.38
2022-12-31T10:00:41.710Z,100502.16
2022-12-31T10:02:27.049Z,100509.91
2022-12-31T10:04:23.288Z,100503.72
2022-12-31T10:06:16.124Z,100504.69
2022-12-31T10:07:55.468Z,100510.00
2022-12-31T10:09:42.588Z,100506.28
2022-12-31T10:11:21.490Z,100506.28
2022-12-31T10:13:22.665Z,100507.03
2022-12-31T10:15:16.789Z,100513.75
2022-12-31T10:17:08.442Z,100496.19
2022-12-31T10:19:00.216Z,100510.44
2022-12-31T10:20:55.150Z,100517.47
2022-12-31T10:23:05.274Z,100509.50
2022-12-31T10:24:47.441Z,100509.38
2022-12-31T10:26:27.967Z,100513.00
2022-12-31T10:28:06.898Z,100514.59
2022-12-31T10:29:46.878Z,100508.22
2022-12-31T10:31:29.796Z,100516.91
2022-12-31T10:33:08.961Z,100503.63
2022-12-31T10:34:53.049Z,100517.91
2022-12-31T10:36:31.395Z,100513.66
2022-12-31T10:38:16.071Z,100512.69
2022-12-31T10:39:59.569Z,100515.97
2022-12-31T10:42:10.387Z,100519.28
2022-12-31T10:44:14.329Z,100509.59
2022-12-31T10:46:22.447Z,100460.78
2022-12-31T10:48:26.921Z,100495.34
2022-12-31T10:50:27.583Z,100507.56
2022-12-31T10:52:38.175Z,100482.78
2022-12-31T10:54:23.338Z,100492.38
2022-12-31T10:56:32.185Z,100499.41
2022-12-31T10:58:26.906Z,100478.00
2022-12-31T11:00:12.601Z,100482.38
2022-12-31T11:01:49.731Z,100487.81
2022-12-31T11:04:03.701Z,100484.19
2022-12-31T11:05:59.760Z,100483.09
2022-12-31T11:07:47.037Z,100504.38
2022-12-31T11:10:02.254Z,100494.47
2022-12-31T11:11:45.180Z,100479.09
2022-12-31T11:14:12.193Z,100503.56
2022-12-31T11:16:06.079Z,100506.53
2022-12-31T11:17:51.467Z,100489.41
2022-12-31T11:19:31.865Z,100499.09
2022-12-31T11:21:27.777Z,100502.25
2022-12-31T11:23:13.371Z,100498.53
2022-12-31T11:25:05.089Z,100499.28
2022-12-31T11:26:51.966Z,100491.50
2022-12-31T11:28:49.157Z,100494.16
2022-12-31T11:30:24.146Z,100499.38
2022-12-31T11:32:27.133Z,100499.47
2022-12-31T11:34:15.188Z,100495.22
2022-12-31T11:36:08.275Z,100504.91
2022-12-31T11:37:46.772Z,100495.47
2022-12-31T11:39:34.076Z,100486.53
2022-12-31T11:41:11.528Z,100505.16
2022-12-31T11:42:52.059Z,100506.22
2022-12-31T11:44:32.822Z,100510.91
2022-12-31T11:46:41.812Z,100500.25
2022-12-31T11:48:31.275Z,100512.81
2022-12-31T11:50:26.966Z,100506.84
2022-12-31T11:52:21.176Z,100506.34
2022-12-31T11:54:24.841Z,100502.81
2022-12-31T11:56:03.967Z,100498.56
2022-12-31T11:57:38.389Z,100510.16
2022-12-31T11:59:18.973Z,100496.84
2022-12-31T12:00:56.169Z,100512.06
2022-12-31T12:02:32.340Z,100512.25
2022-12-31T12:04:04.615Z,100516.00
2022-12-31T12:05:39.679Z,100510.69
2022-12-31T12:07:13.869Z,100508.13
2022-12-31T12:08:46.577Z,100508.03
2022-12-31T12:10:24.216Z,100499.28
2022-12-31T12:12:01.058Z,100505.56
2022-12-31T12:13:33.093Z,100507.38
2022-12-31T12:15:08.183Z,100478.13
2022-12-31T12:16:40.155Z,100497.59
2022-12-31T12:18:23.183Z,100500.25
2022-12-31T12:19:56.808Z,100492.47
2022-12-31T12:21:29.564Z,100503.13
2022-12-31T12:23:13.370Z,100500.44
2022-12-31T12:24:57.687Z,100486.31
2022-12-31T12:26:35.492Z,100489.81
2022-12-31T12:28:29.255Z,100499.50
2022-12-31T12:30:09.921Z,100490.34
2022-12-31T12:31:41.735Z,100500.13
2022-12-31T12:33:19.440Z,100507.03
2022-12-31T12:34:51.391Z,100500.88
2022-12-31T12:36:23.213Z,100481.53
2022-12-31T12:38:00.010Z,100473.53
2022-12-31T12:39:33.774Z,100480.66
2022-12-31T12:41:07.613Z,100499.28
2022-12-31T12:42:48.553Z,100493.88
2022-12-31T12:44:20.257Z,100486.75
2022-12-31T12:45:52.933Z,100500.88
2022-12-31T12:47:26.314Z,100493.72
2022-12-31T12:48:58.736Z,100504.38
2022-12-31T12:50:38.910Z,100502.47
2022-12-31T12:52:30.524Z,100492.78
2022-12-31T12:54:14.014Z,100513.09
2022-12-31T12:55:54.198Z,100507.03
2022-12-31T12:57:33.952Z,100511.41
2022-12-31T12:59:38.678Z,100514.28
2022-12-31T13:01:21.864Z,100525.88
2022-12-31T13:03:23.342Z,100525.88
2022-12-31T13:05:07.384Z,100526.00
2022-12-31T13:06:53.562Z,100522.47
2022-12-31T13:08:36.459Z,100529.50
2022-12-31T13:10:20.156Z,100533.00
2022-12-31T13:12:07.837Z,100530.25
2022-12-31T13:13:47.481Z,100538.84
2022-12-31T13:15:27.306Z,100541.59
2022-12-31T13:17:04.071Z,100548.63
2022-12-31T13:18:47.467Z,100530.97
2022-12-31T13:20:29.804Z,100512.59
2022-12-31T13:22:08.601Z,100522.59
2022-12-31T13:23:50.049Z,100551.19
2022-12-31T13:25:30.558Z,100537.03
2022-12-31T13:27:12.583Z,100533.41
2022-12-31T13:28:46.910Z,100534.47
2022-12-31T13:30:23.289Z,100522.25
2022-12-31T13:31:57.894Z,100522.47
2022-12-31T13:33:33.674Z,100532.47
2022-12-31T13:35:22.213Z,100517.38
2022-12-31T13:36:59.335Z,100524.38
2022-12-31T13:38:36.131Z,100519.28
2022-12-31T13:40:22.423Z,100529.81
2022-12-31T13:41:59.313Z,100534.06
2022-12-31T13:43:38.132Z,100526.94
2022-12-31T13:45:13.563Z,100528.66
2022-12-31T13:46:51.409Z,100521.38
2022-12-31T13:48:30.251Z,100527.78
2022-12-31T13:50:14.714Z,100526.94
2022-12-31T13:51:49.240Z,100541.09
2022-12-31T13:53:26.740Z,100524.38
2022-12-31T13:55:09.320Z,100511.41
2022-12-31T13:56:44.159Z,100528.59
2022-12-31T13:58:23.063Z,100533.19
2022-12-31T14:00:00.464Z,100538.81
2022-12-31T14:01:37.753Z,100551.38
2022-12-31T14:03:20.228Z,100550.50
2022-12-31T14:04:56.470Z,100541.13
2022-12-31T14:06:34.838Z,100532.63
2022-12-31T14:08:06.919Z,100533.78
2022-12-31T14:09:38.808Z,100537.59
2022-12-31T14:11:20.407Z,100516.97
2022-12-31T14:13:00.287Z,100528.75
2022-12-31T14:14:42.275Z,100512.38
2022-12-31T14:16:25.120Z,100509.16
2022-12-31T14:18:04.140Z,100505.84
2022-12-31T14:19:52.725Z,100511.34
2022-12-31T14:21:31.207Z,100516.97
2022-12-31T14:23:11.533Z,100525.88
2022-12-31T14:24:45.815Z,100523.31
2022-12-31T14:26:23.873Z,100527.13
2022-12-31T14:27:57.589Z,100540.59
2022-12-31T14:29:35.296Z,100540.91
2022-12-31T14:31:19.530Z,100534.75
2022-12-31T14:33:09.550Z,100526.97
2022-12-31T14:34:51.661Z,100534.94
2022-12-31T14:36:33.687Z,100538.72
2022-12-31T14:38:14.512Z,100541.47
2022-12-31T14:39:56.620Z,100533.59
2022-12-31T14:41:43.895Z,100539.78
2022-12-31T14:43:25.411Z,100535.44
2022-12-31T14:45:14.926Z,100528.63
2022-12-31T14:47:02.247Z,100535.91
2022-12-31T14:48:45.290Z,100530.50
2022-12-31T14:50:23.545Z,100530.59
2022-12-31T14:51:55.349Z,100528.81
2022-12-31T14:53:28.518Z,100542.06
2022-12-31T14:55:11.664Z,100548.16
2022-12-31T14:56:45.032Z,100537.53
2022-12-31T14:58:29.498Z,100546.34
2022-12-31T15:00:21.034Z,100541.97
2022-12-31T15:01:53.488Z,100538.38
2022-12-31T15:03:34.668Z,100550.91
2022-12-31T15:05:17.167Z,100556.28
2022-12-31T15:06:59.383Z,100552.78
2022-12-31T15:08:42.716Z,100554.69
2022-12-31T15:10:18.983Z,100570.69
2022-12-31T15:12:06.866Z,100561.03
2022-12-31T15:13:55.998Z,100559.44
2022-12-31T15:15:36.592Z,100564.94
2022-12-31T15:17:17.898Z,100568.47
2022-12-31T15:19:29.959Z,100551.69
2022-12-31T15:21:20.780Z,100560.69
2022-12-31T15:22:54.871Z,100554.69
2022-12-31T15:24:30.498Z,100566.25
2022-12-31T15:26:03.853Z,100566.34
2022-12-31T15:27:38.228Z,100560.28
2022-12-31T15:29:30.055Z,100574.41
2022-12-31T15:31:05.855Z,100575.47
2022-12-31T15:32:41.300Z,100569.41
2022-12-31T15:34:24.902Z,100580.78
2022-12-31T15:35:57.898Z,100578.22
2022-12-31T15:37:32.474Z,100580.03
2022-12-31T15:39:25.762Z,100576.53
2022-12-31T15:40:58.491Z,100570.28
2022-12-31T15:42:49.129Z,100572.91
2022-12-31T15:44:29.839Z,100576.59
2022-12-31T15:46:03.331Z,100566.84
2022-12-31T15:47:39.644Z,100563.44
2022-12-31T15:49:18.047Z,100568.75
2022-12-31T15:50:52.372Z,100573.09
2022-12-31T15:52:30.400Z,100564.19
2022-12-31T15:54:05.051Z,100557.09
2022-12-31T15:55:43.834Z,100563.25
2022-12-31T15:57:19.736Z,100568.47
2022-12-31T15:58:57.686Z,100572.06
2022-12-31T16:00:44.743Z,100563.25
2022-12-31T16:02:21.494Z,100561.63
2022-12-31T16:03:57.530Z,100568.75
2022-12-31T16:05:29.327Z,100566.09
2022-12-31T16:07:03.349Z,100555.47
2022-12-31T16:08:35.598Z,100550.16
2022-12-31T16:10:09.025Z,100563.44
2022-12-31T16:11:44.415Z,100567.78
2022-12-31T16:13:21.372Z,100567.78
2022-12-31T16:14:55.485Z,100566.09
2022-12-31T16:16:30.135Z,100560.78
2022-12-31T16:18:04.546Z,100555.47
2022-12-31T16:19:42.085Z,100563.53
2022-12-31T16:21:25.757Z,100553.00
2022-12-31T16:22:59.978Z,100558.41
2022-12-31T16:24:33.005Z,100556.59
2022-12-31T16:26:05.311Z,100549.69
2022-12-31T16:27:40.396Z,100549.69
2022-12-31T16:29:13.941Z,100552.47
2022-12-31T16:30:54.527Z,100545.53
2022-12-31T16:32:29.311Z,100554.44
2022-12-31T16:34:12.731Z,100550.00
2022-12-31T16:35:55.434Z,100556.25
2022-12-31T16:37:27.771Z,100554.53
2022-12-31T16:39:23.020Z,100546.66
2022-12-31T16:41:14.934Z,100550.38
2022-12-31T16:42:48.428Z,100557.47
2022-12-31T16:44:27.172Z,100557.66
2022-12-31T16:46:09.840Z,100549.81
2022-12-31T16:47:43.169Z,100552.75
2022-12-31T16:49:20.330Z,100559.00
2022-12-31T16:50:54.442Z,100559.06
2022-12-31T16:52:30.755Z,100567.22
2022-12-31T16:54:03.548Z,100566.44
2022-12-31T16:55:35.551Z,100562.00
2022-12-31T16:57:10.963Z,100569.19
2022-12-31T16:58:46.366Z,100569.28
2022-12-31T17:00:20.789Z,100572.03
2022-12-31T17:01:56.042Z,100575.53
2022-12-31T17:03:29.310Z,100575.69
2022-12-31T17:05:01.806Z,100574.84
2022-12-31T17:06:33.805Z,100573.16
2022-12-31T17:08:23.674Z,100563.47
2022-12-31T17:10:15.559Z,100554.75
2022-12-31T17:11:52.115Z,100559.22
2022-12-31T17:13:29.726Z,100572.47
2022-12-31T17:15:06.601Z,100563.75
2022-12-31T17:16:42.837Z,100567.34
2022-12-31T17:18:19.140Z,100563.94
2022-12-31T17:19:56.952Z,100556.81
2022-12-31T17:21:31.366Z,100558.75
2022-12-31T17:23:07.523Z,100550.88
2022-12-31T17:24:39.701Z,100552.69
2022-12-31T17:26:13.062Z,100541.97
2022-12-31T17:27:53.462Z,100544.63
2022-12-31T17:29:26.561Z,100541.22
2022-12-31T17:31:01.400Z,100540.38
2022-12-31T17:32:37.111Z,100546.44
2022-12-31T17:34:23.356Z,100541.03
2022-12-31T17:35:56.446Z,100541.03
2022-12-31T17:37:30.037Z,100537.41
2022-12-31T17:39:16.971Z,100535.53
2022-12-31T17:40:52.119Z,100536.38
2022-12-31T17:42:28.317Z,100534.41
2022-12-31T17:44:00.096Z,100531.75
2022-12-31T17:45:37.212Z,100529.88
2022-12-31T17:47:13.894Z,100538.75
2022-12-31T17:48:51.412Z,100535.16
2022-12-31T17:50:24.972Z,100548.50
2022-12-31T17:51:56.723Z,100549.38
2022-12-31T17:53:28.388Z,100543.88
2022-12-31T17:55:00.174Z,100532.53
2022-12-31T17:56:33.073Z,100534.22
2022-12-31T17:58:06.563Z,100531.56
2022-12-31T17:59:38.197Z,100529.69
2022-12-31T18:01:12.121Z,100527.97
2022-12-31T18:02:45.285Z,100531.22
2022-12-31T18:04:19.012Z,100529.31
2022-12-31T18:05:51.215Z,100524.03
2022-12-31T18:07:24.799Z,100533.78
2022-12-31T18:08:56.446Z,100526.66
2022-12-31T18:10:32.204Z,100520.44
2022-12-31T18:12:06.393Z,100527.53
2022-12-31T18:13:38.064Z,100528.47
2022-12-31T18:15:15.051Z,100520.59
2022-12-31T18:16:48.060Z,100520.69
2022-12-31T18:18:25.530Z,100525.25
2022-12-31T18:20:06.161Z,100525.31
2022-12-31T18:21:38.530Z,100514.13
2022-12-31T18:23:17.420Z,100517.81
2022-12-31T18:24:54.131Z,100514.22
2022-12-31T18:26:26.580Z,100529.38
2022-12-31T18:27:58.855Z,100511.88
2022-12-31T18:29:30.497Z,100516.50
2022-12-31T18:31:03.048Z,100524.47
2022-12-31T18:32:35.533Z,100525.41
2022-12-31T18:34:12.210Z,100525.50
2022-12-31T18:37:35.830Z,100527.56
2022-12-31T18:39:08.062Z,100521.50
2022-12-31T18:40:42.778Z,100524.16
2022-12-31T18:42:17.268Z,100508.38
2022-12-31T18:43:49.877Z,100521.63